Time;durP1;ratioP1;P1;durP2;ratioP2;P2;SDS_P1;SDS_P2;PMS_P1;PMS_P2;Temp;Humidity;BMP_temperature;BMP_pressure;BME280_temperature;BME280_humidity;BME280_pressure;Samples;Min_cycle;Max_cycle;Signal;HPM_P1;HPM_P2
2022/03/31 00:02:19;;;;;;;21.48;6.53;;;;;;;;;;5053803;28;20489;-94
2022/03/31 00:04:48;;;;;;;11.55;5.90;;;;;;;;;;5069733;28;20017;-89
2022/03/31 00:07:14;;;;;;;13.13;6.18;;;;;;;;;;5056864;28;20067;-93
2022/03/31 00:09:43;;;;;;;10.65;5.70;;;;;;;;;;5053360;28;20032;-92
2022/03/31 00:12:10;;;;;;;16.80;6.63;;;;;;;;;;5035667;28;20493;-92
2022/03/31 00:14:38;;;;;;;22.95;6.78;;;;;;;;;;5035299;28;20040;-92
2022/03/31 00:17:05;;;;;;;10.70;5.95;;;;;;;;;;5035480;28;20036;-93
2022/03/31 00:19:31;;;;;;;10.93;5.93;;;;;;;;;;5036214;28;20033;-92
2022/03/31 00:21:57;;;;;;;17.20;6.40;;;;;;;;;;5036300;28;20029;-90
2022/03/31 00:24:23;;;;;;;12.23;5.85;;;;;;;;;;5035570;28;20028;-92
2022/03/31 00:26:53;;;;;;;15.55;5.90;;;;;;;;;;5037360;28;20021;-90
2022/03/31 00:29:22;;;;;;;12.32;6.13;;;;;;;;;;5041904;28;20028;-90
2022/03/31 00:31:55;;;;;;;11.57;6.20;;;;;;;;;;5035571;28;20025;-89
2022/03/31 00:34:24;;;;;;;14.70;6.33;;;;;;;;;;5035567;28;20043;-93
2022/03/31 00:36:50;;;;;;;13.07;6.35;;;;;;;;;;5038481;28;20025;-92
2022/03/31 00:39:34;;;;;;;15.35;6.53;;;;;;;;;;5039111;28;20393;-89
2022/03/31 00:42:25;;;;;;;12.55;6.20;;;;;;;;;;5039777;28;20119;-94
2022/03/31 00:45:03;;;;;;;13.18;6.15;;;;;;;;;;5039534;28;20082;-91
2022/03/31 00:47:41;;;;;;;15.25;7.05;;;;;;;;;;5039768;28;20036;-92
2022/03/31 00:50:17;;;;;;;15.27;6.65;;;;;;;;;;5042991;28;20401;-90
2022/03/31 00:52:46;;;;;;;14.23;6.50;;;;;;;;;;5056217;28;20013;-90
2022/03/31 00:55:19;;;;;;;11.43;6.07;;;;;;;;;;5044167;28;20048;-90
2022/03/31 00:57:55;;;;;;;14.70;7.10;;;;;;;;;;5038789;28;20033;-94
2022/03/31 01:00:29;;;;;;;13.77;7.07;;;;;;;;;;5038966;28;20052;-92
2022/03/31 01:03:01;;;;;;;12.40;6.70;;;;;;;;;;5022977;28;20029;-90
2022/03/31 01:05:28;;;;;;;16.80;7.03;;;;;;;;;;5038304;28;20021;-90
2022/03/31 01:07:55;;;;;;;14.35;6.82;;;;;;;;;;5038823;28;20048;-91
2022/03/31 01:10:21;;;;;;;15.38;6.65;;;;;;;;;;5038717;28;20140;-93
2022/03/31 01:12:49;;;;;;;15.32;7.15;;;;;;;;;;5039509;28;20028;-90
2022/03/31 01:15:15;;;;;;;18.17;7.50;;;;;;;;;;5038739;28;20461;-92
2022/03/31 01:17:42;;;;;;;11.43;6.05;;;;;;;;;;5038499;28;20044;-91
2022/03/31 01:20:10;;;;;;;10.93;6.15;;;;;;;;;;5038563;28;20024;-90
2022/03/31 01:26:12;;;;;;;10.70;6.20;;;;;;;;;;5214204;22;20481;-92
2022/03/31 01:28:56;;;;;;;14.65;6.53;;;;;;;;;;5018310;28;20043;-89
2022/03/31 01:31:22;;;;;;;20.35;7.53;;;;;;;;;;5018461;28;20022;-92
2022/03/31 01:33:51;;;;;;;16.98;6.78;;;;;;;;;;5018398;28;20108;-90
2022/03/31 01:36:36;;;;;;;15.48;7.00;;;;;;;;;;5017799;28;20030;-92
2022/03/31 01:39:10;;;;;;;16.27;7.35;;;;;;;;;;5018146;28;20030;-92
2022/03/31 01:41:36;;;;;;;21.38;8.23;;;;;;;;;;5018045;28;20049;-95
2022/03/31 01:44:09;;;;;;;18.48;7.55;;;;;;;;;;5018294;28;20103;-93
2022/03/31 01:46:58;;;;;;;14.07;7.43;;;;;;;;;;5021051;28;20087;-93
2022/03/31 01:49:46;;;;;;;18.52;8.23;;;;;;;;;;5030467;23;20033;-92
2022/03/31 01:52:13;;;;;;;14.07;7.72;;;;;;;;;;5033548;28;20055;-93
2022/03/31 01:54:53;;;;;;;15.43;7.68;;;;;;;;;;5017791;28;20033;-90
2022/03/31 01:57:20;;;;;;;12.38;7.43;;;;;;;;;;5034661;28;20076;-93
2022/03/31 01:59:46;;;;;;;16.83;8.60;;;;;;;;;;5034415;28;20486;-93
2022/03/31 02:02:13;;;;;;;16.45;7.47;;;;;;;;;;5012856;28;20034;-93
2022/03/31 02:04:51;;;;;;;18.77;8.68;;;;;;;;;;5014058;28;20647;-90
2022/03/31 02:07:20;;;;;;;21.65;7.72;;;;;;;;;;4993918;28;20038;-87
2022/03/31 02:09:46;;;;;;;15.50;7.47;;;;;;;;;;5017866;28;20022;-93
2022/03/31 02:12:12;;;;;;;16.38;7.20;;;;;;;;;;5027609;28;20061;-90
2022/03/31 02:14:51;;;;;;;19.60;7.60;;;;;;;;;;5060256;22;20041;-92
2022/03/31 02:17:21;;;;;;;13.63;7.10;;;;;;;;;;5091137;28;20031;-93
2022/03/31 02:19:47;;;;;;;17.20;7.93;;;;;;;;;;5091301;28;20025;-90
2022/03/31 02:22:13;;;;;;;15.93;7.93;;;;;;;;;;5091163;28;20052;-92
2022/03/31 02:24:46;;;;;;;14.75;7.57;;;;;;;;;;5104813;28;20021;-88
2022/03/31 02:27:15;;;;;;;14.77;8.30;;;;;;;;;;5091018;28;20080;-93
2022/03/31 02:30:02;;;;;;;14.68;7.63;;;;;;;;;;5149668;22;20125;-89
2022/03/31 02:32:35;;;;;;;16.20;7.75;;;;;;;;;;5066433;28;20041;-93
2022/03/31 02:35:01;;;;;;;18.40;8.32;;;;;;;;;;5057004;28;20039;-91
2022/03/31 02:37:31;;;;;;;13.80;8.07;;;;;;;;;;5056508;28;20106;-92
2022/03/31 02:40:07;;;;;;;16.30;8.20;;;;;;;;;;5056901;28;20102;-90
2022/03/31 02:42:42;;;;;;;17.95;8.32;;;;;;;;;;5057641;28;20031;-89
2022/03/31 02:45:37;;;;;;;16.70;8.00;;;;;;;;;;5057565;28;20576;-92
2022/03/31 02:48:04;;;;;;;14.30;7.65;;;;;;;;;;5016662;28;20130;-93
2022/03/31 02:50:37;;;;;;;15.40;7.82;;;;;;;;;;5033280;28;20045;-90
2022/03/31 02:55:48;;;;;;;20.50;8.30;;;;;;;;;;5080960;28;20039;-89
2022/03/31 02:58:27;;;;;;;13.60;8.13;;;;;;;;;;5060447;28;20119;-93
2022/03/31 03:00:56;;;;;;;18.05;8.18;;;;;;;;;;5056554;28;20024;-92
2022/03/31 03:03:38;;;;;;;14.68;8.75;;;;;;;;;;5055894;28;20435;-90
2022/03/31 03:06:11;;;;;;;16.88;8.55;;;;;;;;;;5055892;28;20651;-87
2022/03/31 03:08:37;;;;;;;18.42;8.18;;;;;;;;;;5053086;28;20043;-85
2022/03/31 03:11:12;;;;;;;15.40;8.75;;;;;;;;;;5053878;28;20107;-93
2022/03/31 03:13:42;;;;;;;15.90;8.07;;;;;;;;;;5056215;28;20497;-84
2022/03/31 03:16:14;;;;;;;18.73;8.57;;;;;;;;;;5056236;28;20024;-92
2022/03/31 03:18:50;;;;;;;19.88;8.48;;;;;;;;;;5057879;28;20048;-93
2022/03/31 03:21:16;;;;;;;15.82;8.27;;;;;;;;;;5059782;28;20047;-92
2022/03/31 03:23:48;;;;;;;14.60;8.05;;;;;;;;;;5056527;28;20023;-92
2022/03/31 03:29:35;;;;;;;15.30;7.85;;;;;;;;;;4973190;28;20383;-92
2022/03/31 03:32:01;;;;;;;16.50;8.52;;;;;;;;;;5036706;28;20033;-93
2022/03/31 03:34:36;;;;;;;18.33;8.90;;;;;;;;;;5054547;28;20031;-90
2022/03/31 03:37:03;;;;;;;17.35;8.70;;;;;;;;;;5053746;28;20513;-90
2022/03/31 03:39:30;;;;;;;20.55;8.77;;;;;;;;;;5052522;28;20029;-91
2022/03/31 03:42:03;;;;;;;25.13;10.13;;;;;;;;;;5052860;28;20028;-91
2022/03/31 03:44:35;;;;;;;22.70;11.32;;;;;;;;;;5052955;28;20112;-93
2022/03/31 03:47:16;;;;;;;19.73;9.52;;;;;;;;;;5052507;28;20069;-86
2022/03/31 03:49:48;;;;;;;23.67;11.35;;;;;;;;;;5050249;28;20029;-94
2022/03/31 03:52:47;;;;;;;25.25;11.88;;;;;;;;;;5034602;28;20094;-92
2022/03/31 03:55:19;;;;;;;20.25;9.75;;;;;;;;;;5047847;28;20110;-91
2022/03/31 03:57:57;;;;;;;21.58;10.32;;;;;;;;;;5054342;28;20021;-86
2022/03/31 04:00:34;;;;;;;19.52;9.85;;;;;;;;;;5054987;28;20496;-92
2022/03/31 04:03:09;;;;;;;18.55;9.77;;;;;;;;;;5052530;28;20029;-90
2022/03/31 04:05:45;;;;;;;16.75;9.50;;;;;;;;;;5074147;28;20042;-91
2022/03/31 04:08:11;;;;;;;23.65;9.90;;;;;;;;;;5050144;28;20140;-95
2022/03/31 04:10:38;;;;;;;24.77;10.05;;;;;;;;;;5031573;28;20033;-92
2022/03/31 04:13:05;;;;;;;22.00;12.05;;;;;;;;;;5057177;28;20096;-94
2022/03/31 04:15:32;;;;;;;21.38;11.48;;;;;;;;;;5059634;28;20112;-95
2022/03/31 04:18:05;;;;;;;20.95;10.82;;;;;;;;;;5059333;28;20025;-92
2022/03/31 04:20:35;;;;;;;20.08;10.00;;;;;;;;;;5061726;28;20074;-93
2022/03/31 04:23:06;;;;;;;22.52;11.00;;;;;;;;;;5044088;28;20087;-94
2022/03/31 04:25:32;;;;;;;21.73;10.38;;;;;;;;;;5057012;28;20045;-95
2022/03/31 04:28:04;;;;;;;22.85;10.15;;;;;;;;;;5057142;28;20032;-95
2022/03/31 04:30:43;;;;;;;22.13;10.52;;;;;;;;;;5039330;28;20037;-95
2022/03/31 04:33:17;;;;;;;21.42;9.85;;;;;;;;;;5038101;28;20029;-95
2022/03/31 04:35:43;;;;;;;16.02;9.20;;;;;;;;;;5020471;28;20041;-94
2022/03/31 04:38:09;;;;;;;19.70;10.35;;;;;;;;;;5040318;28;20048;-93
2022/03/31 04:40:36;;;;;;;19.17;10.07;;;;;;;;;;5047464;28;20510;-93
2022/03/31 04:43:05;;;;;;;26.98;9.93;;;;;;;;;;5058075;28;20033;-90
2022/03/31 04:45:34;;;;;;;16.98;9.43;;;;;;;;;;5048967;28;20091;-93
2022/03/31 04:48:00;;;;;;;22.33;9.65;;;;;;;;;;5041080;28;20036;-94
2022/03/31 04:50:29;;;;;;;17.15;8.55;;;;;;;;;;5044086;28;20164;-91
2022/03/31 04:52:56;;;;;;;24.02;9.82;;;;;;;;;;5035387;28;20113;-91
2022/03/31 04:55:25;;;;;;;17.35;10.00;;;;;;;;;;5036669;28;20034;-91
2022/03/31 04:57:51;;;;;;;17.05;9.20;;;;;;;;;;5034984;28;20030;-90
2022/03/31 05:00:45;;;;;;;20.75;10.20;;;;;;;;;;5043446;28;20516;-94
2022/03/31 05:06:59;;;;;;;22.00;9.68;;;;;;;;;;5078166;28;20556;-90
2022/03/31 05:09:38;;;;;;;19.15;9.98;;;;;;;;;;4990192;28;20105;-93
2022/03/31 05:12:24;;;;;;;18.65;9.93;;;;;;;;;;4982586;28;20053;-95
2022/03/31 05:17:35;;;;;;;21.50;9.32;;;;;;;;;;5193652;23;20068;-67
2022/03/31 05:20:09;;;;;;;23.93;8.80;;;;;;;;;;5036948;28;20041;-68
2022/03/31 05:22:35;;;;;;;16.98;8.95;;;;;;;;;;5036698;28;20025;-67
2022/03/31 05:25:02;;;;;;;21.15;9.25;;;;;;;;;;5054372;28;20078;-57
2022/03/31 05:27:28;;;;;;;19.25;8.85;;;;;;;;;;5037260;28;20023;-70
2022/03/31 05:29:54;;;;;;;17.85;8.65;;;;;;;;;;5055113;28;20040;-69
2022/03/31 05:32:21;;;;;;;17.23;8.65;;;;;;;;;;5037302;28;20377;-66
2022/03/31 05:34:47;;;;;;;15.63;7.97;;;;;;;;;;5037060;28;20078;-57
2022/03/31 05:37:14;;;;;;;17.38;8.63;;;;;;;;;;5054712;28;20443;-67
2022/03/31 05:39:40;;;;;;;15.35;8.57;;;;;;;;;;5036787;28;20040;-66
2022/03/31 05:42:07;;;;;;;20.25;8.95;;;;;;;;;;5054934;28;20040;-67
2022/03/31 05:44:33;;;;;;;16.55;8.38;;;;;;;;;;5037125;28;20035;-64
2022/03/31 05:46:59;;;;;;;21.77;8.73;;;;;;;;;;5036966;28;20021;-66
2022/03/31 05:49:25;;;;;;;20.92;9.15;;;;;;;;;;5036931;28;20036;-65
2022/03/31 05:51:51;;;;;;;54.28;21.63;;;;;;;;;;5054863;28;20032;-64
2022/03/31 05:54:17;;;;;;;56.80;23.85;;;;;;;;;;5036857;28;20024;-66
2022/03/31 05:56:46;;;;;;;37.78;16.42;;;;;;;;;;5055290;28;20492;-67
2022/03/31 05:59:15;;;;;;;22.98;11.52;;;;;;;;;;5045328;28;20040;-67
2022/03/31 06:01:42;;;;;;;20.40;9.80;;;;;;;;;;5053622;28;20032;-66
2022/03/31 06:04:08;;;;;;;20.23;8.45;;;;;;;;;;5034831;28;20508;-67
2022/03/31 06:06:34;;;;;;;12.82;7.80;;;;;;;;;;5034016;28;20061;-67
2022/03/31 06:09:01;;;;;;;17.27;8.45;;;;;;;;;;5043373;28;20022;-67
2022/03/31 06:11:27;;;;;;;15.90;8.18;;;;;;;;;;5033981;28;20079;-66
2022/03/31 06:13:53;;;;;;;18.85;8.65;;;;;;;;;;5036484;28;20140;-68
2022/03/31 06:16:19;;;;;;;18.60;8.32;;;;;;;;;;5054334;28;20425;-70
2022/03/31 06:18:45;;;;;;;15.20;7.10;;;;;;;;;;5036308;28;20429;-68
2022/03/31 06:21:12;;;;;;;14.90;7.32;;;;;;;;;;5036342;28;20504;-67
2022/03/31 06:23:38;;;;;;;22.92;7.40;;;;;;;;;;5036382;28;20021;-68
2022/03/31 06:26:04;;;;;;;18.02;7.70;;;;;;;;;;5054040;28;20537;-68
2022/03/31 06:28:31;;;;;;;16.13;7.88;;;;;;;;;;5054141;28;20421;-67
2022/03/31 06:30:58;;;;;;;16.05;7.78;;;;;;;;;;5036242;28;20047;-68
2022/03/31 06:33:24;;;;;;;14.13;8.07;;;;;;;;;;5035508;28;20447;-68
2022/03/31 06:35:50;;;;;;;14.35;7.13;;;;;;;;;;5053849;28;20017;-68
2022/03/31 06:38:16;;;;;;;14.20;7.85;;;;;;;;;;5035970;28;20128;-67
2022/03/31 06:41:06;;;;;;;17.38;8.27;;;;;;;;;;5054174;28;20373;-66
2022/03/31 06:43:28;;;;;;;18.10;8.27;;;;;;;;;;5053349;28;20036;-67
2022/03/31 06:45:54;;;;;;;17.77;8.38;;;;;;;;;;5052420;28;20112;-66
2022/03/31 06:48:20;;;;;;;18.25;8.00;;;;;;;;;;5054101;28;20025;-64
2022/03/31 06:50:47;;;;;;;18.67;7.75;;;;;;;;;;5053605;28;20539;-71
2022/03/31 06:53:13;;;;;;;13.35;7.38;;;;;;;;;;5053928;28;20036;-70
2022/03/31 06:55:39;;;;;;;14.55;7.07;;;;;;;;;;5053657;28;20056;-70
2022/03/31 06:58:05;;;;;;;16.95;7.22;;;;;;;;;;5052131;28;20028;-69
2022/03/31 07:00:31;;;;;;;15.15;7.20;;;;;;;;;;5052199;28;20033;-70
2022/03/31 07:02:58;;;;;;;14.20;6.53;;;;;;;;;;5053499;28;20474;-70
2022/03/31 07:05:24;;;;;;;17.75;7.43;;;;;;;;;;5053357;28;20032;-72
2022/03/31 07:07:50;;;;;;;19.85;7.90;;;;;;;;;;5052054;28;20483;-72
2022/03/31 07:10:16;;;;;;;18.83;7.45;;;;;;;;;;5053327;28;20028;-61
2022/03/31 07:12:42;;;;;;;14.13;7.13;;;;;;;;;;5032616;28;20021;-68
2022/03/31 07:15:09;;;;;;;12.52;6.70;;;;;;;;;;5015528;28;20025;-63
2022/03/31 07:17:36;;;;;;;14.02;7.50;;;;;;;;;;5015309;28;20136;-71
2022/03/31 07:20:02;;;;;;;20.60;9.45;;;;;;;;;;5015343;28;20053;-68
2022/03/31 07:22:28;;;;;;;17.25;7.38;;;;;;;;;;5015359;28;20025;-71
2022/03/31 07:24:55;;;;;;;13.25;7.00;;;;;;;;;;5015339;28;20057;-72
2022/03/31 07:27:21;;;;;;;22.33;7.70;;;;;;;;;;5033518;28;20022;-72
2022/03/31 07:29:47;;;;;;;15.05;7.38;;;;;;;;;;5015347;28;20032;-71
2022/03/31 07:32:13;;;;;;;16.95;7.10;;;;;;;;;;5015606;28;20024;-70
2022/03/31 07:34:39;;;;;;;16.38;7.32;;;;;;;;;;5015390;28;20025;-67
2022/03/31 07:37:05;;;;;;;19.67;7.68;;;;;;;;;;5014776;28;20025;-55
2022/03/31 07:39:34;;;;;;;15.98;7.03;;;;;;;;;;5031750;28;20053;-56
2022/03/31 07:42:02;;;;;;;16.52;7.53;;;;;;;;;;5031318;28;20032;-72
2022/03/31 07:44:28;;;;;;;14.13;7.28;;;;;;;;;;5016387;28;20144;-73
2022/03/31 07:46:56;;;;;;;18.17;7.65;;;;;;;;;;5018280;28;20072;-72
2022/03/31 07:49:22;;;;;;;13.93;8.18;;;;;;;;;;5036483;28;20377;-71
2022/03/31 07:51:48;;;;;;;20.63;8.27;;;;;;;;;;5019201;28;20029;-57
2022/03/31 07:54:14;;;;;;;18.65;7.55;;;;;;;;;;5019282;28;20025;-73
2022/03/31 07:56:40;;;;;;;18.10;7.60;;;;;;;;;;5019014;28;20034;-73
2022/03/31 08:13:23;;;;;;;14.85;8.05;;;;;;;;;;5078713;28;20040;-87
2022/03/31 08:41:54;;;;;;;16.33;7.78;;;;;;;;;;5062918;28;20091;-89
2022/03/31 08:44:29;;;;;;;16.27;7.80;;;;;;;;;;5041245;28;20041;-93
2022/03/31 08:50:06;;;;;;;18.58;7.68;;;;;;;;;;5063042;28;20092;-89
2022/03/31 08:52:32;;;;;;;26.00;8.23;;;;;;;;;;5047678;28;20036;-89
2022/03/31 08:55:08;;;;;;;15.93;8.38;;;;;;;;;;5049530;28;20142;-91
2022/03/31 09:00:52;;;;;;;20.02;9.15;;;;;;;;;;5010995;28;20042;-91
2022/03/31 09:03:18;;;;;;;18.48;8.90;;;;;;;;;;5051135;28;20031;-90
2022/03/31 09:08:36;;;;;;;17.70;9.15;;;;;;;;;;5039939;28;20060;-88
2022/03/31 09:11:11;;;;;;;19.52;8.48;;;;;;;;;;5040575;28;20049;-92
2022/03/31 09:22:50;;;;;;;21.58;9.05;;;;;;;;;;5049671;28;20527;-95
2022/03/31 09:25:32;;;;;;;20.58;9.02;;;;;;;;;;5022410;28;20045;-89
2022/03/31 09:28:20;;;;;;;17.80;7.95;;;;;;;;;;5046164;28;20491;-90
2022/03/31 09:31:08;;;;;;;20.77;8.77;;;;;;;;;;5048574;28;20089;-88
2022/03/31 09:39:17;;;;;;;19.00;7.88;;;;;;;;;;5083301;28;20139;-92
2022/03/31 09:41:47;;;;;;;14.70;8.02;;;;;;;;;;5063748;28;20056;-90
2022/03/31 09:47:38;;;;;;;15.85;7.47;;;;;;;;;;5063603;28;20089;-96
2022/03/31 09:50:38;;;;;;;15.50;8.15;;;;;;;;;;5096672;28;20076;-96
2022/03/31 09:56:08;;;;;;;26.08;9.45;;;;;;;;;;5000370;28;20088;-91
2022/03/31 10:01:05;;;;;;;21.75;8.73;;;;;;;;;;5315256;22;19904;-90
2022/03/31 10:04:08;;;;;;;21.65;8.88;;;;;;;;;;5062481;28;20032;-91
2022/03/31 10:06:35;;;;;;;19.23;8.27;;;;;;;;;;5058697;28;20020;-93
2022/03/31 10:09:13;;;;;;;17.50;9.00;;;;;;;;;;5047820;28;20037;-94
2022/03/31 10:11:41;;;;;;;16.75;8.70;;;;;;;;;;5062635;28;20079;-93
2022/03/31 10:14:14;;;;;;;26.73;8.48;;;;;;;;;;5058715;28;20055;-91
2022/03/31 10:16:40;;;;;;;23.90;8.15;;;;;;;;;;5054977;28;20124;-91
2022/03/31 10:19:06;;;;;;;19.45;8.02;;;;;;;;;;5057701;28;20045;-91
2022/03/31 10:21:33;;;;;;;19.17;8.13;;;;;;;;;;5060950;28;20032;-90
2022/03/31 10:26:56;;;;;;;23.63;8.07;;;;;;;;;;5062287;28;20032;-90
2022/03/31 10:29:22;;;;;;;15.07;7.90;;;;;;;;;;5055819;28;20032;-92
2022/03/31 10:31:55;;;;;;;15.48;7.13;;;;;;;;;;5058546;28;20468;-91
2022/03/31 10:34:48;;;;;;;15.48;7.32;;;;;;;;;;5057986;28;20024;-95
2022/03/31 10:40:31;;;;;;;15.63;7.88;;;;;;;;;;5227722;22;20027;-94
2022/03/31 10:48:50;;;;;;;15.05;8.15;;;;;;;;;;5018336;28;20038;-92
2022/03/31 10:51:47;;;;;;;18.73;8.43;;;;;;;;;;5002533;28;20034;-94
2022/03/31 11:02:25;;;;;;;24.52;8.75;;;;;;;;;;5118336;22;19921;-94
2022/03/31 11:07:48;;;;;;;20.58;7.38;;;;;;;;;;5805802;22;20053;-95
2022/03/31 11:14:12;;;;;;;22.70;8.10;;;;;;;;;;4948026;28;20095;-94
2022/03/31 11:43:24;;;;;;;19.15;7.20;;;;;;;;;;5102714;28;20043;-92
2022/03/31 11:58:14;;;;;;;19.88;7.80;;;;;;;;;;5114220;23;20082;-94
2022/03/31 13:19:27;;;;;;;19.08;8.45;;;;;;;;;;5024548;28;20422;-93
2022/03/31 13:28:07;;;;;;;24.70;8.90;;;;;;;;;;5025533;28;20509;-94
2022/03/31 13:36:39;;;;;;;17.00;7.97;;;;;;;;;;5015795;28;20049;-91
2022/03/31 13:39:15;;;;;;;17.45;8.95;;;;;;;;;;4997755;28;20038;-95
2022/03/31 13:51:02;;;;;;;22.67;11.00;;;;;;;;;;5131432;23;20052;-91
2022/03/31 14:02:27;;;;;;;17.83;8.55;;;;;;;;;;4959745;29;20504;-94
2022/03/31 14:04:53;;;;;;;18.58;8.50;;;;;;;;;;4920526;29;20044;-92
2022/03/31 14:07:29;;;;;;;18.63;8.80;;;;;;;;;;4919241;29;20036;-89
2022/03/31 14:10:07;;;;;;;17.42;9.50;;;;;;;;;;4947878;28;20088;-89
2022/03/31 14:12:48;;;;;;;16.35;10.07;;;;;;;;;;4979043;28;20125;-91
2022/03/31 14:15:38;;;;;;;18.42;9.88;;;;;;;;;;4978394;28;20034;-90
2022/03/31 14:18:36;;;;;;;20.73;9.65;;;;;;;;;;4991605;28;20137;-89
2022/03/31 14:21:21;;;;;;;18.75;9.65;;;;;;;;;;4959374;28;20039;-91
2022/03/31 14:23:51;;;;;;;18.00;8.90;;;;;;;;;;4958121;28;20549;-94
2022/03/31 14:32:23;;;;;;;18.50;8.98;;;;;;;;;;5232151;23;20515;-90
2022/03/31 14:35:04;;;;;;;15.20;7.82;;;;;;;;;;5045445;22;20113;-92
2022/03/31 14:37:33;;;;;;;15.77;8.50;;;;;;;;;;5059284;28;20032;-90
2022/03/31 14:40:24;;;;;;;21.02;9.43;;;;;;;;;;5059813;28;20401;-91
2022/03/31 14:43:10;;;;;;;16.15;8.43;;;;;;;;;;5062946;28;20078;-91
2022/03/31 14:45:42;;;;;;;16.98;9.82;;;;;;;;;;5064531;28;20068;-91
2022/03/31 14:48:11;;;;;;;21.85;10.02;;;;;;;;;;5043381;28;20040;-90
2022/03/31 14:50:41;;;;;;;22.33;9.35;;;;;;;;;;5120376;22;20020;-91
2022/03/31 14:53:07;;;;;;;17.67;9.93;;;;;;;;;;5104138;22;20525;-92
2022/03/31 14:55:43;;;;;;;21.95;10.18;;;;;;;;;;5057814;22;20056;-96
2022/03/31 14:58:18;;;;;;;18.15;9.77;;;;;;;;;;5038538;28;20030;-91
2022/03/31 15:17:16;;;;;;;24.00;10.95;;;;;;;;;;5670007;22;20037;-92
2022/03/31 15:40:59;;;;;;;30.67;15.05;;;;;;;;;;5068658;28;20071;-95
2022/03/31 15:43:25;;;;;;;29.30;15.13;;;;;;;;;;5000600;28;20065;-92
2022/03/31 15:46:24;;;;;;;22.85;13.60;;;;;;;;;;4981500;28;20027;-95
2022/03/31 15:48:53;;;;;;;25.13;12.70;;;;;;;;;;4977564;28;20027;-92
2022/03/31 15:51:26;;;;;;;30.27;13.55;;;;;;;;;;4976775;28;20027;-93
2022/03/31 15:57:00;;;;;;;26.73;13.43;;;;;;;;;;4978646;28;20059;-93
2022/03/31 15:59:31;;;;;;;26.48;12.07;;;;;;;;;;4961801;28;20050;-93
2022/03/31 16:02:06;;;;;;;23.20;12.27;;;;;;;;;;4958393;28;20054;-92
2022/03/31 16:04:39;;;;;;;25.38;12.70;;;;;;;;;;4962345;28;20031;-91
2022/03/31 16:07:17;;;;;;;22.47;11.37;;;;;;;;;;4966958;28;20033;-93
2022/03/31 16:09:48;;;;;;;18.10;10.88;;;;;;;;;;4968062;28;20023;-93
2022/03/31 16:12:18;;;;;;;19.13;10.43;;;;;;;;;;4984483;28;20089;-94
2022/03/31 16:17:50;;;;;;;21.88;11.43;;;;;;;;;;5130292;23;20052;-95
2022/03/31 16:20:25;;;;;;;18.98;10.73;;;;;;;;;;5027847;28;20041;-93
2022/03/31 16:31:31;;;;;;;20.33;10.52;;;;;;;;;;5483983;22;20099;-96
2022/03/31 16:34:12;;;;;;;19.38;10.60;;;;;;;;;;5010635;28;20030;-93
2022/03/31 16:39:59;;;;;;;18.75;10.15;;;;;;;;;;4960328;29;20042;-90
2022/03/31 16:42:55;;;;;;;19.98;9.77;;;;;;;;;;4942407;29;20175;-90
2022/03/31 16:45:24;;;;;;;15.18;9.20;;;;;;;;;;4935324;29;20089;-91
2022/03/31 16:47:50;;;;;;;13.00;7.35;;;;;;;;;;4944063;29;20063;-91
2022/03/31 16:50:40;;;;;;;11.80;6.57;;;;;;;;;;4945725;29;20038;-91
2022/03/31 16:53:46;;;;;;;12.88;6.25;;;;;;;;;;4960060;29;20094;-92
2022/03/31 16:56:18;;;;;;;14.63;7.38;;;;;;;;;;4870554;29;20056;-93
2022/03/31 16:58:48;;;;;;;15.40;8.00;;;;;;;;;;4871681;29;20044;-92
2022/03/31 17:01:23;;;;;;;17.63;7.93;;;;;;;;;;4870310;29;20041;-94
2022/03/31 17:03:58;;;;;;;14.32;7.93;;;;;;;;;;4871776;29;20041;-94
2022/03/31 17:06:33;;;;;;;17.60;8.07;;;;;;;;;;4871193;29;20033;-95
2022/03/31 17:09:05;;;;;;;15.35;8.48;;;;;;;;;;4944375;29;20015;-92
2022/03/31 17:14:52;;;;;;;15.60;8.05;;;;;;;;;;4944957;29;20055;-91
2022/03/31 17:17:18;;;;;;;14.50;8.48;;;;;;;;;;4928457;29;20059;-92
2022/03/31 17:19:58;;;;;;;14.60;8.15;;;;;;;;;;4911674;29;20141;-93
2022/03/31 17:22:50;;;;;;;12.93;6.72;;;;;;;;;;4930209;29;20007;-91
2022/03/31 17:25:25;;;;;;;15.43;8.32;;;;;;;;;;4945799;29;20095;-92
2022/03/31 17:28:05;;;;;;;13.73;7.20;;;;;;;;;;4932283;29;20024;-92
2022/03/31 17:42:48;;;;;;;11.75;7.32;;;;;;;;;;5027987;28;20072;-91
2022/03/31 17:45:52;;;;;;;13.05;7.55;;;;;;;;;;5020115;28;20030;-90
2022/03/31 17:51:24;;;;;;;14.18;8.52;;;;;;;;;;5025838;28;20060;-93
2022/03/31 17:54:03;;;;;;;12.25;7.40;;;;;;;;;;5020469;28;20429;-94
2022/03/31 17:57:04;;;;;;;10.60;6.70;;;;;;;;;;5009086;28;20038;-94
2022/03/31 18:02:11;;;;;;;14.70;7.63;;;;;;;;;;5146520;22;20441;-93
2022/03/31 18:07:24;;;;;;;11.98;7.22;;;;;;;;;;5605238;22;20060;-91
2022/03/31 18:10:24;;;;;;;11.13;6.95;;;;;;;;;;5024691;28;20033;-92
2022/03/31 18:13:03;;;;;;;12.07;8.18;;;;;;;;;;4924870;29;20130;-92
2022/03/31 18:18:21;;;;;;;10.68;6.85;;;;;;;;;;4943522;29;20030;-90
2022/03/31 18:21:03;;;;;;;13.38;7.78;;;;;;;;;;4923076;29;20039;-91
2022/03/31 18:23:41;;;;;;;12.60;7.18;;;;;;;;;;4993116;28;20390;-91
2022/03/31 18:26:14;;;;;;;11.10;6.95;;;;;;;;;;5005084;28;20033;-93
2022/03/31 18:28:44;;;;;;;11.80;7.13;;;;;;;;;;5013528;28;20056;-90
2022/03/31 18:34:07;;;;;;;12.05;7.00;;;;;;;;;;5015379;28;20041;-92
2022/03/31 18:36:41;;;;;;;12.10;7.75;;;;;;;;;;4992928;28;20034;-92
2022/03/31 18:39:17;;;;;;;10.20;6.80;;;;;;;;;;5006513;28;20057;-91
2022/03/31 18:42:03;;;;;;;13.13;7.15;;;;;;;;;;4989330;28;20478;-92
2022/03/31 18:44:32;;;;;;;11.15;6.95;;;;;;;;;;4998491;28;20102;-94
2022/03/31 18:50:13;;;;;;;10.38;6.88;;;;;;;;;;4997992;28;20037;-91
2022/03/31 18:52:39;;;;;;;12.90;7.40;;;;;;;;;;4980556;28;20035;-92
2022/03/31 18:55:20;;;;;;;12.50;7.25;;;;;;;;;;4981518;28;20038;-90
2022/03/31 18:57:46;;;;;;;10.13;6.68;;;;;;;;;;4984441;28;20026;-93
2022/03/31 19:00:17;;;;;;;9.07;6.05;;;;;;;;;;4998115;28;20034;-93
2022/03/31 19:03:05;;;;;;;10.05;6.10;;;;;;;;;;4987003;28;20046;-92
2022/03/31 19:05:50;;;;;;;11.45;6.50;;;;;;;;;;4984857;28;20065;-91
2022/03/31 19:20:41;;;;;;;7.82;5.43;;;;;;;;;;5008638;28;20036;-92
2022/03/31 19:29:54;;;;;;;8.73;6.22;;;;;;;;;;5070916;23;20048;-92
2022/03/31 19:38:24;;;;;;;;;;;;;;;;;;5395741;22;20053;-91
2022/03/31 19:44:05;;;;;;;8.23;4.85;;;;;;;;;;4271166;22;20051;-90
2022/03/31 19:49:02;;;;;;;9.18;4.97;;;;;;;;;;5057325;28;20056;-91
2022/03/31 20:03:13;;;;;;;8.20;5.28;;;;;;;;;;4982587;28;20073;-90
2022/03/31 20:05:57;;;;;;;7.57;5.00;;;;;;;;;;5078826;23;20048;-93
2022/03/31 20:17:17;;;;;;;9.55;6.13;;;;;;;;;;5266563;22;20049;-93
2022/03/31 20:26:23;;;;;;;10.20;5.70;;;;;;;;;;5003009;28;20063;-91
2022/03/31 20:29:19;;;;;;;8.60;5.07;;;;;;;;;;5002413;28;20130;-91
2022/03/31 20:32:00;;;;;;;8.63;5.20;;;;;;;;;;5131360;22;20129;-94
2022/03/31 20:37:11;;;;;;;8.13;4.43;;;;;;;;;;5175320;23;20139;-92
2022/03/31 20:39:43;;;;;;;9.32;4.95;;;;;;;;;;5038478;28;20045;-95
2022/03/31 20:42:16;;;;;;;8.48;5.47;;;;;;;;;;5159887;22;20073;-92
2022/03/31 21:12:06;;;;;;;7.90;4.93;;;;;;;;;;5097886;22;20170;-94
2022/03/31 21:17:07;;;;;;;7.05;4.70;;;;;;;;;;5749820;22;20347;-93
2022/03/31 21:22:05;;;;;;;7.68;4.18;;;;;;;;;;5021901;28;20278;-93
2022/03/31 21:24:31;;;;;;;7.03;4.50;;;;;;;;;;5008556;28;20038;-91
2022/03/31 21:27:13;;;;;;;6.75;4.70;;;;;;;;;;5008830;28;20029;-92
2022/03/31 21:29:43;;;;;;;7.60;4.70;;;;;;;;;;5009338;28;20022;-94
2022/03/31 21:37:56;;;;;;;8.43;4.97;;;;;;;;;;5081983;28;20048;-93
2022/03/31 21:40:40;;;;;;;9.07;5.47;;;;;;;;;;5067289;28;20485;-94
2022/03/31 21:43:25;;;;;;;8.10;5.00;;;;;;;;;;5068462;28;20534;-94
2022/03/31 21:46:04;;;;;;;8.13;4.93;;;;;;;;;;5071072;28;20059;-91
2022/03/31 21:52:07;;;;;;;8.80;4.70;;;;;;;;;;5083705;28;20050;-93
2022/03/31 21:54:48;;;;;;;9.30;5.40;;;;;;;;;;5073728;28;20028;-91
2022/03/31 21:57:20;;;;;;;8.52;5.00;;;;;;;;;;5066551;28;20033;-93
2022/03/31 21:59:59;;;;;;;9.05;5.78;;;;;;;;;;5019700;28;20041;-93
2022/03/31 22:02:29;;;;;;;8.18;5.57;;;;;;;;;;5066048;28;20025;-91
2022/03/31 22:05:20;;;;;;;9.70;5.88;;;;;;;;;;5066662;28;20036;-93
2022/03/31 22:13:54;;;;;;;8.43;5.47;;;;;;;;;;5065150;28;20043;-93
2022/03/31 22:16:27;;;;;;;8.68;5.30;;;;;;;;;;5048737;28;20085;-92
2022/03/31 22:18:58;;;;;;;8.30;5.90;;;;;;;;;;5046708;28;20033;-94
2022/03/31 22:21:39;;;;;;;7.88;5.10;;;;;;;;;;5117769;22;20046;-95
2022/03/31 22:30:08;;;;;;;9.32;5.90;;;;;;;;;;5045467;28;20094;-91
2022/03/31 22:36:08;;;;;;;8.80;5.90;;;;;;;;;;5045447;28;20033;-93
2022/03/31 22:38:40;;;;;;;8.75;5.40;;;;;;;;;;5043214;28;20037;-92
2022/03/31 22:48:03;;;;;;;9.63;6.50;;;;;;;;;;4984485;28;20041;-94
2022/03/31 22:50:30;;;;;;;11.05;6.20;;;;;;;;;;4967654;28;20057;-92
2022/03/31 22:55:41;;;;;;;10.85;6.43;;;;;;;;;;5308013;22;20108;-93
2022/03/31 22:58:14;;;;;;;10.27;6.03;;;;;;;;;;5058870;28;20021;-93
2022/03/31 23:03:49;;;;;;;7.95;5.93;;;;;;;;;;5068189;28;20067;-93
2022/03/31 23:12:39;;;;;;;8.52;5.63;;;;;;;;;;5066236;28;20039;-94
2022/03/31 23:17:58;;;;;;;7.97;5.00;;;;;;;;;;5022667;28;20040;-95
2022/03/31 23:23:20;;;;;;;7.00;4.30;;;;;;;;;;5026608;28;20056;-94